createdAt,value
2023-07-31T00:00:01.896Z,20.62
2023-07-31T00:00:35.495Z,20.63
2023-07-31T00:01:28.709Z,20.63
2023-07-31T00:02:02.057Z,20.62
2023-07-31T00:02:35.200Z,20.63
2023-07-31T00:03:08.445Z,20.63
2023-07-31T00:03:41.735Z,20.64
2023-07-31T00:04:15.129Z,20.64
2023-07-31T00:04:48.402Z,20.63
2023-07-31T00:05:22.033Z,20.63
2023-07-31T00:05:55.249Z,20.64
2023-07-31T00:06:28.471Z,20.64
2023-07-31T00:07:01.586Z,20.65
2023-07-31T00:07:35.024Z,20.65
2023-07-31T00:08:08.202Z,20.66
2023-07-31T00:08:41.353Z,20.65
2023-07-31T00:09:14.512Z,20.66
2023-07-31T00:09:47.735Z,20.65
2023-07-31T00:10:21.140Z,20.65
2023-07-31T00:10:54.507Z,20.65
2023-07-31T00:11:27.653Z,20.64
2023-07-31T00:12:01.322Z,20.64
2023-07-31T00:12:34.586Z,20.63
2023-07-31T00:13:07.895Z,20.63
2023-07-31T00:13:41.170Z,20.64
2023-07-31T00:14:14.468Z,20.64
2023-07-31T00:14:47.816Z,20.64
2023-07-31T00:15:21.050Z,20.64
2023-07-31T00:15:54.336Z,20.64
2023-07-31T00:16:27.521Z,20.64
2023-07-31T00:17:00.704Z,20.64
2023-07-31T00:17:33.978Z,20.64
2023-07-31T00:18:07.456Z,20.62
2023-07-31T00:18:40.588Z,20.63
2023-07-31T00:19:13.824Z,20.63
2023-07-31T00:19:52.002Z,20.63
2023-07-31T00:20:25.681Z,20.62
2023-07-31T00:20:58.992Z,20.61
2023-07-31T00:21:32.094Z,20.60
2023-07-31T00:22:05.591Z,20.59
2023-07-31T00:22:38.853Z,20.59
2023-07-31T00:23:11.999Z,20.57
2023-07-31T00:23:45.278Z,20.58
2023-07-31T00:24:18.370Z,20.57
2023-07-31T00:24:51.607Z,20.57
2023-07-31T00:25:24.737Z,20.57
2023-07-31T00:25:57.821Z,20.58
2023-07-31T00:26:31.108Z,20.58
2023-07-31T00:27:04.616Z,20.57
2023-07-31T00:27:37.894Z,20.56
2023-07-31T00:28:11.637Z,20.56
2023-07-31T00:28:44.761Z,20.56
2023-07-31T00:29:17.861Z,20.55
2023-07-31T00:29:51.056Z,20.55
2023-07-31T00:30:26.493Z,20.53
2023-07-31T00:30:59.652Z,20.52
2023-07-31T00:31:32.872Z,20.52
2023-07-31T00:32:06.775Z,20.52
2023-07-31T00:32:40.047Z,20.52
2023-07-31T00:33:13.327Z,20.52
2023-07-31T00:33:46.395Z,20.52
2023-07-31T00:34:19.555Z,20.51
2023-07-31T00:34:53.508Z,20.50
2023-07-31T00:35:26.656Z,20.50
2023-07-31T00:35:59.841Z,20.51
2023-07-31T00:36:33.026Z,20.51
2023-07-31T00:37:06.670Z,20.51
2023-07-31T00:37:39.879Z,20.51
2023-07-31T00:38:13.034Z,20.51
2023-07-31T00:38:46.424Z,20.51
2023-07-31T00:39:21.239Z,20.50
2023-07-31T00:39:54.528Z,20.50
2023-07-31T00:40:27.855Z,20.50
2023-07-31T00:41:01.069Z,20.50
2023-07-31T00:41:34.315Z,20.49
2023-07-31T00:42:07.930Z,20.48
2023-07-31T00:42:41.199Z,20.49
2023-07-31T00:43:14.382Z,20.49
2023-07-31T00:43:47.523Z,20.48
2023-07-31T00:44:20.971Z,20.48
2023-07-31T00:44:54.351Z,20.49
2023-07-31T00:45:28.786Z,20.47
2023-07-31T00:46:02.251Z,20.46
2023-07-31T00:46:35.519Z,20.44
2023-07-31T00:47:08.939Z,20.44
2023-07-31T00:47:42.234Z,20.43
2023-07-31T00:48:15.609Z,20.43
2023-07-31T00:48:49.735Z,20.42
2023-07-31T00:49:24.078Z,20.42
2023-07-31T00:49:57.427Z,20.41
2023-07-31T00:50:31.095Z,20.41
2023-07-31T00:51:04.515Z,20.40
2023-07-31T00:51:37.722Z,20.40
2023-07-31T00:52:11.798Z,20.40
2023-07-31T00:52:45.083Z,20.40
2023-07-31T00:53:18.301Z,20.40
2023-07-31T00:53:52.311Z,20.39
2023-07-31T00:54:25.568Z,20.39
2023-07-31T00:54:58.781Z,20.39
2023-07-31T00:55:32.598Z,20.38
2023-07-31T00:56:06.355Z,20.38
2023-07-31T00:56:39.782Z,20.38
2023-07-31T00:57:13.471Z,20.38
2023-07-31T00:57:47.101Z,20.38
2023-07-31T00:58:20.577Z,20.37
2023-07-31T00:58:53.765Z,20.36
2023-07-31T00:59:26.859Z,20.36
2023-07-31T01:00:00.187Z,20.35
2023-07-31T01:00:33.444Z,20.34
2023-07-31T01:01:06.825Z,20.33
2023-07-31T01:01:40.286Z,20.32
2023-07-31T01:02:13.763Z,20.32
2023-07-31T01:02:47.465Z,20.32
2023-07-31T01:03:21.003Z,20.31
2023-07-31T01:03:55.293Z,20.31
2023-07-31T01:04:28.903Z,20.30
2023-07-31T01:05:03.642Z,20.30
2023-07-31T01:06:13.774Z,20.29
2023-07-31T01:07:24.239Z,20.26
2023-07-31T01:08:11.085Z,20.20
2023-07-31T01:09:03.766Z,20.16
2023-07-31T01:09:54.156Z,20.13
2023-07-31T01:10:38.518Z,20.11
2023-07-31T01:11:18.809Z,20.10
2023-07-31T01:11:59.081Z,20.08
2023-07-31T01:12:33.386Z,20.07
2023-07-31T01:13:07.660Z,20.06
2023-07-31T01:13:41.086Z,20.06
2023-07-31T01:14:14.236Z,20.06
2023-07-31T01:15:02.620Z,20.07
2023-07-31T01:15:36.739Z,20.07
2023-07-31T01:16:09.934Z,20.07
2023-07-31T01:16:43.342Z,20.07
2023-07-31T01:17:17.030Z,20.07
2023-07-31T01:17:50.569Z,20.07
2023-07-31T01:18:23.815Z,20.08
2023-07-31T01:18:57.051Z,20.09
2023-07-31T01:19:30.490Z,20.09
2023-07-31T01:20:07.238Z,20.09
2023-07-31T01:20:44.510Z,20.09
2023-07-31T01:21:38.834Z,20.10
2023-07-31T01:22:23.970Z,20.09
2023-07-31T01:23:25.423Z,20.07
2023-07-31T01:24:25.071Z,20.04
2023-07-31T01:25:18.877Z,20.01
2023-07-31T01:26:14.467Z,19.99
2023-07-31T01:26:56.818Z,19.97
2023-07-31T01:27:37.317Z,19.96
2023-07-31T01:28:16.291Z,19.95
2023-07-31T01:28:55.700Z,19.94
2023-07-31T01:29:50.225Z,19.94
2023-07-31T01:30:29.333Z,19.94
2023-07-31T01:31:08.959Z,19.92
2023-07-31T01:31:46.949Z,19.92
2023-07-31T01:32:21.231Z,19.92
2023-07-31T01:32:56.237Z,19.91
2023-07-31T01:33:31.267Z,19.93
2023-07-31T01:34:05.195Z,19.94
2023-07-31T01:34:38.720Z,19.94
2023-07-31T01:35:12.169Z,19.94
2023-07-31T01:35:47.768Z,19.95
2023-07-31T01:36:21.435Z,19.95
2023-07-31T01:36:54.649Z,19.96
2023-07-31T01:37:31.443Z,19.96
2023-07-31T01:38:06.034Z,19.96
2023-07-31T01:38:39.221Z,19.95
2023-07-31T01:39:12.291Z,19.96
2023-07-31T01:39:45.527Z,19.95
2023-07-31T01:40:18.809Z,19.96
2023-07-31T01:40:55.182Z,19.96
2023-07-31T01:41:28.980Z,19.97
2023-07-31T01:42:02.116Z,19.98
2023-07-31T01:42:35.289Z,19.97
2023-07-31T01:43:08.451Z,19.97
2023-07-31T01:43:41.681Z,19.96
2023-07-31T01:44:14.898Z,19.96
2023-07-31T01:44:48.128Z,19.96
2023-07-31T01:45:21.401Z,19.96
2023-07-31T01:45:55.111Z,19.96
2023-07-31T01:46:28.459Z,19.96
2023-07-31T01:47:01.727Z,19.96
2023-07-31T01:47:34.923Z,19.97
2023-07-31T01:48:08.267Z,19.98
2023-07-31T01:48:41.517Z,19.98
2023-07-31T01:49:14.757Z,19.99
2023-07-31T01:49:47.904Z,19.99
2023-07-31T01:50:21.219Z,19.99
2023-07-31T01:50:54.509Z,20.00
2023-07-31T01:51:27.670Z,19.99
2023-07-31T01:52:00.824Z,19.98
2023-07-31T01:52:34.062Z,19.98
2023-07-31T01:53:07.279Z,19.98
2023-07-31T01:53:40.596Z,19.99
2023-07-31T01:54:13.796Z,19.99
2023-07-31T01:54:46.977Z,20.00
2023-07-31T01:55:20.165Z,20.00
2023-07-31T01:55:53.353Z,20.01
2023-07-31T01:56:26.459Z,20.01
2023-07-31T01:56:59.632Z,20.01
2023-07-31T01:57:32.789Z,20.02
2023-07-31T01:58:05.941Z,20.03
2023-07-31T01:58:39.198Z,20.04
2023-07-31T01:59:12.428Z,20.05
2023-07-31T01:59:45.584Z,20.06
2023-07-31T02:00:18.838Z,20.07
2023-07-31T02:00:52.027Z,20.08
2023-07-31T02:01:25.264Z,20.07
2023-07-31T02:01:58.570Z,20.06
2023-07-31T02:02:31.911Z,20.07
2023-07-31T02:03:05.471Z,20.06
2023-07-31T02:03:38.866Z,20.05
2023-07-31T02:04:12.189Z,20.05
2023-07-31T02:04:45.361Z,20.03
2023-07-31T02:05:18.679Z,20.03
2023-07-31T02:05:51.858Z,20.01
2023-07-31T02:06:25.149Z,20.00
2023-07-31T02:06:58.340Z,19.99
2023-07-31T02:07:31.478Z,19.99
2023-07-31T02:08:06.417Z,19.98
2023-07-31T02:08:40.360Z,19.97
2023-07-31T02:09:13.533Z,19.97
2023-07-31T02:09:48.320Z,19.97
2023-07-31T02:10:21.978Z,19.97
2023-07-31T02:10:55.221Z,19.97
2023-07-31T02:11:28.367Z,19.96
2023-07-31T02:12:01.639Z,19.95
2023-07-31T02:12:35.092Z,19.93
2023-07-31T02:13:08.397Z,19.92
2023-07-31T02:13:41.682Z,19.91
2023-07-31T02:14:15.079Z,19.92
2023-07-31T02:14:48.209Z,19.92
2023-07-31T02:15:22.519Z,19.92
2023-07-31T02:15:56.073Z,19.92
2023-07-31T02:16:29.225Z,19.91
2023-07-31T02:17:02.648Z,19.91
2023-07-31T02:17:35.781Z,19.90
2023-07-31T02:18:09.313Z,19.90
2023-07-31T02:18:42.526Z,19.89
2023-07-31T02:19:15.633Z,19.89
2023-07-31T02:19:49.517Z,19.88
2023-07-31T02:20:22.830Z,19.88
2023-07-31T02:20:56.049Z,19.88
2023-07-31T02:21:29.261Z,19.87
2023-07-31T02:22:02.451Z,19.87
2023-07-31T02:22:35.653Z,19.87
2023-07-31T02:23:08.950Z,19.87
2023-07-31T02:23:42.216Z,19.88
2023-07-31T02:24:15.543Z,19.89
2023-07-31T02:24:48.776Z,19.89
2023-07-31T02:25:21.928Z,19.90
2023-07-31T02:25:55.106Z,19.90
2023-07-31T02:26:28.326Z,19.90
2023-07-31T02:27:01.502Z,19.89
2023-07-31T02:27:34.812Z,19.89
2023-07-31T02:28:08.168Z,19.88
2023-07-31T02:28:44.221Z,19.87
2023-07-31T02:29:17.299Z,19.86
2023-07-31T02:29:50.449Z,19.85
2023-07-31T02:30:23.716Z,19.86
2023-07-31T02:30:56.875Z,19.86
2023-07-31T02:31:30.096Z,19.85
2023-07-31T02:32:03.640Z,19.85
2023-07-31T02:32:36.798Z,19.85
2023-07-31T02:33:09.966Z,19.85
2023-07-31T02:33:43.076Z,19.84
2023-07-31T02:34:16.195Z,19.84
2023-07-31T02:34:49.435Z,19.84
2023-07-31T02:35:22.569Z,19.83
2023-07-31T02:35:55.733Z,19.82
2023-07-31T02:36:29.438Z,19.82
2023-07-31T02:37:02.697Z,19.82
2023-07-31T02:37:35.867Z,19.82
2023-07-31T02:38:08.975Z,19.82
2023-07-31T02:38:42.160Z,19.81
2023-07-31T02:39:15.428Z,19.79
2023-07-31T02:39:48.639Z,19.78
2023-07-31T02:40:22.077Z,19.77
2023-07-31T02:40:55.228Z,19.77
2023-07-31T02:41:28.404Z,19.76
2023-07-31T02:42:01.988Z,19.75
2023-07-31T02:42:35.277Z,19.76
2023-07-31T02:43:09.304Z,19.77
2023-07-31T02:43:42.528Z,19.78
2023-07-31T02:44:15.975Z,19.78
2023-07-31T02:44:49.171Z,19.79
2023-07-31T02:45:22.364Z,19.79
2023-07-31T02:45:55.683Z,19.80
2023-07-31T02:46:29.035Z,19.80
2023-07-31T02:47:02.358Z,19.80
2023-07-31T02:47:35.783Z,19.80
2023-07-31T02:48:09.068Z,19.80
2023-07-31T02:48:42.249Z,19.80
2023-07-31T02:49:15.424Z,19.81
2023-07-31T02:49:48.655Z,19.81
2023-07-31T02:50:22.204Z,19.81
2023-07-31T02:50:55.384Z,19.81
2023-07-31T02:51:28.578Z,19.81
2023-07-31T02:52:01.773Z,19.81
2023-07-31T02:52:35.008Z,19.81
2023-07-31T02:53:08.233Z,19.81
2023-07-31T02:53:41.616Z,19.81
2023-07-31T02:54:14.873Z,19.80
2023-07-31T02:54:48.101Z,19.80
2023-07-31T02:55:21.269Z,19.81
2023-07-31T02:55:54.459Z,19.80
2023-07-31T02:56:27.677Z,19.80
2023-07-31T02:57:00.942Z,19.80
2023-07-31T02:57:34.349Z,19.79
2023-07-31T02:58:07.631Z,19.79
2023-07-31T02:58:43.745Z,19.79
2023-07-31T02:59:16.940Z,19.78
2023-07-31T02:59:50.255Z,19.78
2023-07-31T03:00:23.554Z,19.78
2023-07-31T03:00:56.894Z,19.77
2023-07-31T03:01:30.101Z,19.77
2023-07-31T03:02:03.418Z,19.77
2023-07-31T03:02:36.911Z,19.78
2023-07-31T03:03:10.577Z,19.77
2023-07-31T03:03:44.130Z,19.78
2023-07-31T03:04:18.863Z,19.78
2023-07-31T03:04:52.713Z,19.79
2023-07-31T03:05:25.825Z,19.79
2023-07-31T03:05:59.063Z,19.79
2023-07-31T03:06:32.410Z,19.79
2023-07-31T03:07:06.096Z,19.78
2023-07-31T03:07:39.341Z,19.78
2023-07-31T03:08:12.486Z,19.78
2023-07-31T03:08:45.752Z,19.77
2023-07-31T03:09:18.901Z,19.77
2023-07-31T03:09:52.151Z,19.77
2023-07-31T03:10:25.486Z,19.76
2023-07-31T03:10:58.636Z,19.75
2023-07-31T03:11:31.892Z,19.75
2023-07-31T03:12:05.229Z,19.75
2023-07-31T03:12:38.506Z,19.75
2023-07-31T03:13:11.736Z,19.74
2023-07-31T03:13:44.983Z,19.74
2023-07-31T03:14:18.431Z,19.73
2023-07-31T03:14:51.766Z,19.73
2023-07-31T03:15:25.010Z,19.73
2023-07-31T03:15:58.165Z,19.73
2023-07-31T03:16:31.281Z,19.74
2023-07-31T03:17:04.798Z,19.73
2023-07-31T03:17:38.075Z,19.73
2023-07-31T03:18:11.564Z,19.72
2023-07-31T03:18:44.793Z,19.71
2023-07-31T03:19:18.043Z,19.71
2023-07-31T03:19:51.166Z,19.71
2023-07-31T03:20:24.274Z,19.70
2023-07-31T03:20:57.417Z,19.70
2023-07-31T03:21:30.778Z,19.70
2023-07-31T03:22:03.989Z,19.69
2023-07-31T03:22:37.084Z,19.69
2023-07-31T03:23:10.187Z,19.69
2023-07-31T03:23:44.958Z,19.69
2023-07-31T03:24:18.139Z,19.69
2023-07-31T03:24:51.240Z,19.67
2023-07-31T03:25:24.470Z,19.65
2023-07-31T03:25:59.965Z,19.64
2023-07-31T03:26:34.152Z,19.64
2023-07-31T03:27:07.607Z,19.64
2023-07-31T03:27:40.718Z,19.64
2023-07-31T03:28:13.847Z,19.65
2023-07-31T03:28:46.985Z,19.65
2023-07-31T03:29:22.905Z,19.66
2023-07-31T03:29:57.978Z,19.66
2023-07-31T03:30:31.071Z,19.67
2023-07-31T03:31:04.289Z,19.67
2023-07-31T03:31:37.578Z,19.67
2023-07-31T03:32:10.797Z,19.68
2023-07-31T03:32:43.976Z,19.67
2023-07-31T03:33:17.111Z,19.66
2023-07-31T03:33:50.234Z,19.66
2023-07-31T03:34:24.633Z,19.66
2023-07-31T03:34:57.863Z,19.67
2023-07-31T03:35:31.007Z,19.68
2023-07-31T03:36:04.496Z,19.69
2023-07-31T03:36:38.104Z,19.69
2023-07-31T03:37:11.615Z,19.68
2023-07-31T03:37:44.840Z,19.69
2023-07-31T03:38:18.060Z,19.69
2023-07-31T03:38:55.124Z,19.70
2023-07-31T03:39:28.384Z,19.70
2023-07-31T03:40:01.772Z,19.69
2023-07-31T03:40:35.109Z,19.69
2023-07-31T03:41:08.654Z,19.70
2023-07-31T03:41:41.920Z,19.70
2023-07-31T03:42:15.123Z,19.71
2023-07-31T03:42:48.290Z,19.70
2023-07-31T03:43:21.535Z,19.71
2023-07-31T03:43:55.616Z,19.71
2023-07-31T03:44:28.926Z,19.71
2023-07-31T03:45:02.163Z,19.70
2023-07-31T03:45:35.517Z,19.68
2023-07-31T03:46:08.789Z,19.68
2023-07-31T03:46:42.272Z,19.69
2023-07-31T03:47:15.907Z,19.68
2023-07-31T03:47:49.036Z,19.67
2023-07-31T03:48:22.467Z,19.67
2023-07-31T03:48:55.655Z,19.67
2023-07-31T03:49:28.914Z,19.66
2023-07-31T03:50:02.204Z,19.66
2023-07-31T03:50:35.357Z,19.66
2023-07-31T03:51:08.510Z,19.66
2023-07-31T03:51:43.098Z,19.66
2023-07-31T03:52:16.360Z,19.67
2023-07-31T03:52:49.711Z,19.67
2023-07-31T03:53:22.886Z,19.68
2023-07-31T03:53:56.076Z,19.68
2023-07-31T03:54:29.296Z,19.69
2023-07-31T03:55:02.511Z,19.71
2023-07-31T03:55:35.788Z,19.73
2023-07-31T03:56:09.155Z,19.75
2023-07-31T03:56:43.103Z,19.75
2023-07-31T03:57:16.814Z,19.76
2023-07-31T03:57:50.030Z,19.76
2023-07-31T03:58:23.379Z,19.75
2023-07-31T03:58:56.637Z,19.75
2023-07-31T03:59:29.911Z,19.76
2023-07-31T04:00:03.287Z,19.77
2023-07-31T04:00:36.612Z,19.78
2023-07-31T04:01:09.840Z,19.79
2023-07-31T04:01:43.220Z,19.80
2023-07-31T04:02:16.428Z,19.80
2023-07-31T04:02:49.817Z,19.80
2023-07-31T04:03:23.052Z,19.81
2023-07-31T04:03:56.149Z,19.81
2023-07-31T04:04:29.357Z,19.83
2023-07-31T04:05:02.653Z,19.83
2023-07-31T04:05:39.659Z,19.84
2023-07-31T04:06:12.872Z,19.84
2023-07-31T04:06:46.075Z,19.84
2023-07-31T04:07:19.262Z,19.84
2023-07-31T04:07:52.528Z,19.85
2023-07-31T04:08:25.803Z,19.86
2023-07-31T04:08:58.987Z,19.87
2023-07-31T04:09:32.076Z,19.87
2023-07-31T04:10:05.753Z,19.87
2023-07-31T04:10:38.975Z,19.88
2023-07-31T04:11:13.530Z,19.89
2023-07-31T04:11:46.672Z,19.90
2023-07-31T04:12:19.952Z,19.91
2023-07-31T04:12:53.605Z,19.92
2023-07-31T04:13:28.973Z,19.93
2023-07-31T04:14:02.198Z,19.93
2023-07-31T04:14:35.297Z,19.94
2023-07-31T04:15:08.844Z,19.96
2023-07-31T04:15:42.211Z,19.96
2023-07-31T04:16:15.452Z,19.98
2023-07-31T04:16:48.752Z,19.99
2023-07-31T04:17:22.027Z,19.99
2023-07-31T04:17:55.330Z,20.00
2023-07-31T04:18:28.647Z,20.01
2023-07-31T04:19:01.877Z,20.02
2023-07-31T04:19:35.035Z,20.03
2023-07-31T04:20:08.685Z,20.03
2023-07-31T04:20:41.849Z,20.04
2023-07-31T04:21:15.022Z,20.05
2023-07-31T04:21:48.282Z,20.06
2023-07-31T04:22:21.526Z,20.07
2023-07-31T04:22:54.707Z,20.08
2023-07-31T04:23:28.055Z,20.10
2023-07-31T04:24:01.319Z,20.10
2023-07-31T04:24:34.531Z,20.11
2023-07-31T04:25:08.014Z,20.12
2023-07-31T04:25:41.197Z,20.13
2023-07-31T04:26:14.424Z,20.14
2023-07-31T04:26:47.567Z,20.16
2023-07-31T04:27:20.664Z,20.17
2023-07-31T04:27:53.834Z,20.18
2023-07-31T04:28:27.517Z,20.19
2023-07-31T04:29:01.546Z,20.20
2023-07-31T04:29:35.522Z,20.20
2023-07-31T04:30:09.205Z,20.21
2023-07-31T04:30:42.371Z,20.22
2023-07-31T04:31:15.596Z,20.23
2023-07-31T04:31:50.040Z,20.23
2023-07-31T04:32:23.244Z,20.25
2023-07-31T04:32:56.500Z,20.26
2023-07-31T04:33:29.871Z,20.28
2023-07-31T04:34:03.107Z,20.29
2023-07-31T04:34:36.236Z,20.31
2023-07-31T04:35:09.531Z,20.32
2023-07-31T04:35:42.782Z,20.34
2023-07-31T04:36:16.081Z,20.36
2023-07-31T04:36:49.234Z,20.37
2023-07-31T04:37:22.497Z,20.38
2023-07-31T04:37:55.759Z,20.40
2023-07-31T04:38:28.986Z,20.41
2023-07-31T04:39:02.583Z,20.42
2023-07-31T04:39:35.815Z,20.45
2023-07-31T04:40:09.734Z,20.47
2023-07-31T04:40:42.960Z,20.49
2023-07-31T04:41:16.201Z,20.52
2023-07-31T04:41:49.338Z,20.54
2023-07-31T04:42:22.614Z,20.56
2023-07-31T04:42:55.818Z,20.59
2023-07-31T04:43:29.064Z,20.61
2023-07-31T04:44:03.076Z,20.62
2023-07-31T04:44:37.134Z,20.64
2023-07-31T04:45:11.097Z,20.65
2023-07-31T04:45:48.725Z,20.67
2023-07-31T04:46:22.075Z,20.69
2023-07-31T04:46:55.363Z,20.71
2023-07-31T04:47:28.743Z,20.73
2023-07-31T04:48:01.940Z,20.74
2023-07-31T04:48:35.087Z,20.76
2023-07-31T04:49:08.210Z,20.79
2023-07-31T04:49:41.379Z,20.82
2023-07-31T04:50:14.764Z,20.83
2023-07-31T04:50:47.968Z,20.85
2023-07-31T04:51:22.618Z,20.86
2023-07-31T04:51:55.786Z,20.88
2023-07-31T04:52:28.891Z,20.90
2023-07-31T04:53:02.123Z,20.92
2023-07-31T04:53:35.361Z,20.95
2023-07-31T04:54:08.594Z,20.97
2023-07-31T04:54:41.780Z,20.99
2023-07-31T04:55:15.166Z,21.01
2023-07-31T04:55:48.213Z,21.03
2023-07-31T04:56:21.438Z,21.04
2023-07-31T04:56:54.634Z,21.06
2023-07-31T04:57:27.961Z,21.07
2023-07-31T04:58:01.235Z,21.09
2023-07-31T04:58:34.576Z,21.11
2023-07-31T04:59:07.836Z,21.13
2023-07-31T04:59:41.038Z,21.16
2023-07-31T05:00:14.336Z,21.17
2023-07-31T05:00:47.509Z,21.18
2023-07-31T05:01:20.766Z,21.20
2023-07-31T05:01:53.988Z,21.22
2023-07-31T05:02:27.212Z,21.24
2023-07-31T05:03:00.694Z,21.25
2023-07-31T05:03:34.218Z,21.27
2023-07-31T05:04:07.515Z,21.28
2023-07-31T05:04:40.878Z,21.29
2023-07-31T05:05:14.330Z,21.31
2023-07-31T05:05:47.718Z,21.33
2023-07-31T05:06:22.046Z,21.34
2023-07-31T05:06:55.302Z,21.36
2023-07-31T05:07:28.592Z,21.37
2023-07-31T05:08:01.887Z,21.38
2023-07-31T05:08:35.140Z,21.39
2023-07-31T05:09:10.770Z,21.41
2023-07-31T05:09:44.129Z,21.43
2023-07-31T05:10:17.385Z,21.44
2023-07-31T05:10:51.770Z,21.45
2023-07-31T05:11:25.021Z,21.46
2023-07-31T05:11:58.308Z,21.48
2023-07-31T05:12:31.544Z,21.49
2023-07-31T05:13:04.758Z,21.50
2023-07-31T05:13:37.917Z,21.51
2023-07-31T05:14:11.236Z,21.53
2023-07-31T05:14:44.590Z,21.54
2023-07-31T05:15:17.768Z,21.56
2023-07-31T05:15:51.033Z,21.57
2023-07-31T05:16:24.902Z,21.59
2023-07-31T05:16:58.203Z,21.60
2023-07-31T05:17:31.497Z,21.62
2023-07-31T05:18:04.750Z,21.63
2023-07-31T05:18:38.007Z,21.64
2023-07-31T05:19:11.100Z,21.65
2023-07-31T05:19:44.278Z,21.67
2023-07-31T05:20:17.694Z,21.67
2023-07-31T05:20:50.876Z,21.67
2023-07-31T05:21:24.113Z,21.68
2023-07-31T05:21:57.266Z,21.70
2023-07-31T05:22:30.477Z,21.71
2023-07-31T05:23:03.825Z,21.73
2023-07-31T05:23:37.186Z,21.75
2023-07-31T05:24:11.290Z,21.75
2023-07-31T05:24:44.497Z,21.78
2023-07-31T05:25:17.643Z,21.80
2023-07-31T05:25:50.801Z,21.82
2023-07-31T05:26:24.081Z,21.83
2023-07-31T05:26:57.344Z,21.84
2023-07-31T05:27:31.212Z,21.86
2023-07-31T05:28:04.646Z,21.87
2023-07-31T05:28:38.033Z,21.89
2023-07-31T05:29:11.392Z,21.90
2023-07-31T05:29:44.655Z,21.92
2023-07-31T05:30:18.051Z,21.93
2023-07-31T05:30:51.274Z,21.94
2023-07-31T05:31:25.346Z,21.96
2023-07-31T05:31:58.849Z,21.97
2023-07-31T05:32:32.278Z,21.99
2023-07-31T05:33:05.737Z,22.01
2023-07-31T05:33:39.127Z,22.02
2023-07-31T05:34:12.356Z,22.04
2023-07-31T05:34:45.725Z,22.05
2023-07-31T05:35:19.185Z,22.06
2023-07-31T05:35:52.376Z,22.08
2023-07-31T05:36:25.750Z,22.09
2023-07-31T05:36:59.028Z,22.09
2023-07-31T05:37:32.706Z,22.10
2023-07-31T05:38:05.871Z,22.11
2023-07-31T05:38:40.969Z,22.12
2023-07-31T05:39:15.592Z,22.13
2023-07-31T05:39:48.873Z,22.14
2023-07-31T05:40:22.163Z,22.15
2023-07-31T05:40:55.479Z,22.17
2023-07-31T05:41:28.608Z,22.18
2023-07-31T05:42:01.750Z,22.21
2023-07-31T05:42:35.960Z,22.22
2023-07-31T05:43:09.617Z,22.23
2023-07-31T05:43:44.342Z,22.24
2023-07-31T05:44:17.574Z,22.26
2023-07-31T05:44:50.897Z,22.27
2023-07-31T05:45:24.206Z,22.28
2023-07-31T05:45:57.499Z,22.29
2023-07-31T05:46:32.590Z,22.30
2023-07-31T05:47:06.469Z,22.31
2023-07-31T05:47:39.651Z,22.32
2023-07-31T05:48:12.935Z,22.33
2023-07-31T05:48:46.088Z,22.35
2023-07-31T05:49:19.215Z,22.36
2023-07-31T05:49:55.425Z,22.38
2023-07-31T05:50:28.605Z,22.41
2023-07-31T05:51:01.845Z,22.42
2023-07-31T05:51:35.114Z,22.44
2023-07-31T05:52:08.621Z,22.45
2023-07-31T05:52:41.733Z,22.47
2023-07-31T05:53:15.046Z,22.49
2023-07-31T05:53:48.283Z,22.50
2023-07-31T05:54:21.655Z,22.53
2023-07-31T05:54:55.150Z,22.55
2023-07-31T05:55:28.430Z,22.58
2023-07-31T05:56:01.627Z,22.61
2023-07-31T05:56:35.565Z,22.64
2023-07-31T05:57:08.875Z,22.66
2023-07-31T05:57:42.053Z,22.68
2023-07-31T05:58:15.254Z,22.71
2023-07-31T05:58:50.095Z,22.73
2023-07-31T05:59:23.562Z,22.76
2023-07-31T05:59:56.880Z,22.78
2023-07-31T06:00:30.283Z,22.80
2023-07-31T06:01:03.596Z,22.81
2023-07-31T06:01:37.362Z,22.83
2023-07-31T06:02:10.584Z,22.84
2023-07-31T06:02:43.744Z,22.86
2023-07-31T06:03:17.110Z,22.87
2023-07-31T06:03:50.560Z,22.88
2023-07-31T06:04:26.774Z,22.89
2023-07-31T06:05:00.223Z,22.89
2023-07-31T06:05:33.710Z,22.89
2023-07-31T06:06:06.943Z,22.89
2023-07-31T06:06:40.457Z,22.88
2023-07-31T06:07:13.877Z,22.87
2023-07-31T06:07:47.111Z,22.87
2023-07-31T06:08:20.379Z,22.88
2023-07-31T06:08:54.022Z,22.90
2023-07-31T06:09:27.631Z,22.92
2023-07-31T06:10:05.992Z,22.94
2023-07-31T06:10:39.798Z,22.96
2023-07-31T06:11:13.254Z,22.97
2023-07-31T06:11:46.593Z,22.97
2023-07-31T06:12:20.200Z,22.97
2023-07-31T06:12:53.543Z,22.95
2023-07-31T06:13:26.848Z,22.95
2023-07-31T06:14:00.707Z,22.95
2023-07-31T06:14:34.077Z,22.96
2023-07-31T06:15:08.319Z,22.96
2023-07-31T06:15:41.541Z,22.97
2023-07-31T06:16:14.859Z,22.98
2023-07-31T06:16:48.191Z,23.01
2023-07-31T06:17:21.268Z,23.02
2023-07-31T06:17:54.683Z,23.05
2023-07-31T06:18:28.931Z,23.09
2023-07-31T06:19:02.499Z,23.11
2023-07-31T06:19:35.741Z,23.13
2023-07-31T06:20:10.588Z,23.15
2023-07-31T06:20:43.888Z,23.18
2023-07-31T06:21:17.358Z,23.21
2023-07-31T06:21:50.684Z,23.23
2023-07-31T06:22:24.179Z,23.25
2023-07-31T06:22:57.381Z,23.26
2023-07-31T06:23:30.645Z,23.28
2023-07-31T06:24:04.006Z,23.29
2023-07-31T06:24:37.253Z,23.32
2023-07-31T06:25:13.494Z,23.32
2023-07-31T06:25:48.755Z,23.34
2023-07-31T06:26:22.244Z,23.36
2023-07-31T06:26:55.518Z,23.37
2023-07-31T06:27:28.797Z,23.39
2023-07-31T06:28:02.235Z,23.41
2023-07-31T06:28:36.631Z,23.42
2023-07-31T06:29:09.887Z,23.44
2023-07-31T06:29:44.064Z,23.46
2023-07-31T06:30:17.377Z,23.49
2023-07-31T06:30:50.672Z,23.49
2023-07-31T06:31:24.485Z,23.50
2023-07-31T06:31:57.882Z,23.52
2023-07-31T06:32:31.864Z,23.54
2023-07-31T06:33:05.265Z,23.56
2023-07-31T06:33:38.680Z,23.57
2023-07-31T06:34:11.894Z,23.58
2023-07-31T06:34:45.078Z,23.57
2023-07-31T06:35:18.394Z,23.55
2023-07-31T06:35:51.735Z,23.55
2023-07-31T06:36:25.812Z,23.55
2023-07-31T06:36:59.001Z,23.56
2023-07-31T06:37:32.155Z,23.56
2023-07-31T06:38:05.366Z,23.58
2023-07-31T06:38:39.034Z,23.60
2023-07-31T06:39:12.196Z,23.61
2023-07-31T06:39:45.417Z,23.63
2023-07-31T06:40:18.664Z,23.65
2023-07-31T06:40:52.082Z,23.65
2023-07-31T06:41:25.361Z,23.67
2023-07-31T06:41:58.836Z,23.68
2023-07-31T06:42:32.232Z,23.68
2023-07-31T06:43:09.247Z,23.69
2023-07-31T06:43:42.548Z,23.70
2023-07-31T06:44:15.733Z,23.71
2023-07-31T06:44:49.051Z,23.73
2023-07-31T06:45:23.266Z,23.74
2023-07-31T06:45:56.535Z,23.76
2023-07-31T06:46:29.730Z,23.78
2023-07-31T06:47:02.912Z,23.79
2023-07-31T06:47:36.162Z,23.80
2023-07-31T06:48:09.602Z,23.79
2023-07-31T06:48:42.935Z,23.79
2023-07-31T06:49:19.196Z,23.79
2023-07-31T06:49:52.401Z,23.78
2023-07-31T06:50:25.811Z,23.77
2023-07-31T06:50:59.066Z,23.75
2023-07-31T06:51:35.063Z,23.72
2023-07-31T06:52:08.440Z,23.69
2023-07-31T06:52:41.734Z,23.67
2023-07-31T06:53:15.108Z,23.63
2023-07-31T06:53:48.409Z,23.61
2023-07-31T06:54:21.646Z,23.57
2023-07-31T06:55:21.241Z,23.55
2023-07-31T06:55:54.563Z,23.49
2023-07-31T06:56:28.908Z,23.46
2023-07-31T06:57:02.163Z,23.44
2023-07-31T06:57:35.457Z,23.44
2023-07-31T06:58:08.652Z,23.43
2023-07-31T06:58:41.951Z,23.42
2023-07-31T06:59:15.198Z,23.44
2023-07-31T06:59:48.372Z,23.46
2023-07-31T07:00:23.427Z,23.49
2023-07-31T07:00:56.678Z,23.52
2023-07-31T07:01:30.122Z,23.55
2023-07-31T07:02:06.651Z,23.59
2023-07-31T07:02:40.574Z,23.62
2023-07-31T07:03:16.211Z,23.65
2023-07-31T07:03:52.074Z,23.68
2023-07-31T07:04:25.506Z,23.73
2023-07-31T07:04:58.826Z,23.75
2023-07-31T07:05:32.139Z,23.79
2023-07-31T07:06:05.417Z,23.82
2023-07-31T07:06:38.881Z,23.85
2023-07-31T07:07:12.494Z,23.88
2023-07-31T07:07:45.974Z,23.91
2023-07-31T07:08:19.349Z,23.91
2023-07-31T07:08:53.477Z,23.93
2023-07-31T07:09:26.653Z,23.93
2023-07-31T07:10:02.757Z,23.94
2023-07-31T07:10:36.050Z,23.95
2023-07-31T07:11:09.915Z,23.96
2023-07-31T07:11:43.158Z,23.97
2023-07-31T07:12:16.416Z,23.98
2023-07-31T07:12:50.351Z,23.98
2023-07-31T07:13:23.964Z,23.98
2023-07-31T07:13:57.127Z,24.00
2023-07-31T07:14:30.475Z,24.04
2023-07-31T07:15:04.373Z,24.08
2023-07-31T07:15:37.926Z,24.11
2023-07-31T07:16:12.001Z,24.10
2023-07-31T07:16:45.234Z,24.10
2023-07-31T07:17:18.677Z,24.08
2023-07-31T07:17:52.116Z,24.07